Aeroporto :
LOGIN :

Iscrizione | Disclaimer

   EN    FR    IT 

 










Sommario :    VFR   VFR Marginale   IFR   IFR Intensivo   IFR Molto Intensivo
Visibilità : 
Base nubi : 
>= 8 km
>= 3000ft
5 / 8 km
1000 / 3000 ft
1500m / 5 km
500 / 1000 ft
800 / 1500m
200 / 500 ft
< 800m
< 200 ft
Simboli :   Temporali  Nebbia  Neve Forte  Precipitazioni Forti  Vento > 20 kt
SIGMETs :   Varie  Temporali  Ghiacco  Turbolenza  Onda orograficha  Ceneri Vulcaniche






- Altitudine del aeroporto : 86 ft
- Codice IATA : HAU


ENHD - Haugesund

ULTIMO METAR :
  • 201150Z 12009KT 9999 SCT034 BKN043 04/M02 Q1020

METARs OBSOLETI :
  • 201120Z 11009KT 9999 BKN035 03/M02 Q1020
  • 201050Z 11009KT 9999 BKN036 03/M02 Q1020
  • 201020Z 11009KT 9999 SCT038 02/M01 Q1020
  • 200950Z 11010KT CAVOK 02/M02 Q1020
  • 200920Z 10008KT CAVOK 01/M01 Q1020

TAF TAF ENHD
Valido dal 20 a 12 ore il 20 a 21 ore UTC


201100Z 2012/2021 11010KT 9999 BKN030



MetMap, La meteo Aeronautica in un colpo d'occhio ! - Copyright ORBIFLY Dicembre 2007 - Disclaimer

ORBIFLY MET'MAP TEAM :

Programmazione e sviluppo : Alexandra Zaïnal
Concezione e sviluppo : Baudouin d'Aumeries
Co-Programmazione e sviluppo : Marc-Olivier Méhu
Supporto tecnico e logistico : Manuel Goepfert
Aiuto per la traduzione : Arnaldo La Scala

Contatto : metmap@orbifly.com




FONTI E CREDITI :

   NOAA